Time;durP1;ratioP1;P1;durP2;ratioP2;P2;SDS_P1;SDS_P2;PMS_P1;PMS_P2;Temp;Humidity;BMP_temperature;BMP_pressure;BME280_temperature;BME280_humidity;BME280_pressure;Samples;Min_cycle;Max_cycle;Signal;HPM_P1;HPM_P2
2023/01/20 00:00:13;;;;;;;5.53;4.80;;;7.60;1.00;;;;;;5010826;28;20105;-47
2023/01/20 00:02:39;;;;;;;5.00;4.60;;;7.50;1.00;;;;;;5010754;28;20200;-51
2023/01/20 00:05:05;;;;;;;7.50;4.97;;;7.50;1.00;;;;;;5011491;28;20026;-48
2023/01/20 00:07:33;;;;;;;5.23;4.70;;;7.50;1.00;;;;;;5011262;28;20038;-47
2023/01/20 00:09:59;;;;;;;6.07;4.90;;;7.50;1.00;;;;;;5011121;28;20053;-47
2023/01/20 00:12:24;;;;;;;4.77;4.30;;;7.50;1.00;;;;;;5010845;28;20483;-50
2023/01/20 00:14:50;;;;;;;6.80;4.67;;;7.50;1.00;;;;;;5010564;28;20352;-49
2023/01/20 00:17:16;;;;;;;6.20;4.47;;;7.50;1.00;;;;;;5011264;28;20064;-49
2023/01/20 00:19:41;;;;;;;6.87;5.57;;;7.60;1.00;;;;;;5011035;28;20026;-46
2023/01/20 00:22:07;;;;;;;8.17;6.13;;;7.60;1.00;;;;;;4993815;28;20079;-47
2023/01/20 00:24:32;;;;;;;7.57;5.63;;;7.60;1.00;;;;;;5011161;28;20057;-47
2023/01/20 00:26:58;;;;;;;6.50;5.50;;;7.60;1.00;;;;;;5010212;28;20040;-46
2023/01/20 00:29:24;;;;;;;6.97;5.93;;;7.40;1.00;;;;;;5011552;28;20475;-47
2023/01/20 00:31:49;;;;;;;8.77;6.27;;;7.30;1.00;;;;;;5011854;28;20034;-49
2023/01/20 00:34:15;;;;;;;11.97;7.50;;;7.30;1.00;;;;;;5015242;28;20105;-47
2023/01/20 00:36:40;;;;;;;9.27;7.67;;;7.30;1.00;;;;;;5014564;28;20045;-47
2023/01/20 00:39:06;;;;;;;8.33;7.47;;;7.40;1.00;;;;;;5014931;28;20097;-48
2023/01/20 00:41:32;;;;;;;9.00;7.27;;;7.40;1.00;;;;;;5013879;28;20037;-47
2023/01/20 00:43:57;;;;;;;8.73;7.37;;;7.30;1.00;;;;;;5014725;28;20104;-47
2023/01/20 00:46:23;;;;;;;7.77;6.97;;;7.40;1.00;;;;;;5010038;28;20491;-47
2023/01/20 00:48:49;;;;;;;7.97;7.17;;;7.30;1.00;;;;;;5014446;28;20036;-47
2023/01/20 00:51:14;;;;;;;8.97;7.80;;;7.30;1.00;;;;;;5014415;28;20022;-46
2023/01/20 00:53:40;;;;;;;8.53;7.73;;;7.20;1.00;;;;;;5014377;28;20042;-46
2023/01/20 00:56:06;;;;;;;9.27;8.37;;;7.00;1.00;;;;;;5013727;28;20082;-47
2023/01/20 00:58:32;;;;;;;11.37;8.60;;;7.20;1.00;;;;;;5013887;28;20091;-51
2023/01/20 01:00:58;;;;;;;9.50;8.37;;;7.10;1.00;;;;;;5005640;28;20026;-48
2023/01/20 01:03:24;;;;;;;9.57;8.63;;;7.20;1.00;;;;;;5014686;28;20018;-47
2023/01/20 01:05:49;;;;;;;11.33;9.63;;;7.20;1.00;;;;;;4996483;28;20493;-48
2023/01/20 01:08:15;;;;;;;11.07;9.97;;;7.30;1.00;;;;;;5014066;28;20061;-47
2023/01/20 01:10:41;;;;;;;11.07;9.27;;;7.30;1.00;;;;;;5014060;28;20026;-48
2023/01/20 01:13:08;;;;;;;13.20;10.27;;;7.20;1.00;;;;;;5014364;28;20145;-48
2023/01/20 01:15:34;;;;;;;14.63;10.53;;;7.20;1.00;;;;;;5013972;28;20044;-47
2023/01/20 01:18:00;;;;;;;14.83;11.73;;;7.20;1.00;;;;;;5007642;28;20042;-48
2023/01/20 01:20:27;;;;;;;16.63;12.70;;;7.20;1.00;;;;;;5013867;28;20510;-48
2023/01/20 01:22:53;;;;;;;12.30;11.00;;;7.30;1.00;;;;;;5014126;28;20030;-49
2023/01/20 01:25:19;;;;;;;16.43;12.57;;;7.30;1.00;;;;;;5013904;28;20044;-53
2023/01/20 01:27:44;;;;;;;14.93;12.80;;;7.30;1.00;;;;;;5005112;28;20027;-45
2023/01/20 01:30:10;;;;;;;15.80;12.90;;;7.30;1.00;;;;;;5011842;28;20037;-46
2023/01/20 01:32:36;;;;;;;15.23;12.83;;;7.30;1.00;;;;;;5013484;28;20108;-47
2023/01/20 01:35:02;;;;;;;17.20;12.50;;;7.30;1.00;;;;;;5013989;28;20113;-45
2023/01/20 01:37:28;;;;;;;15.40;12.80;;;7.30;1.00;;;;;;5013281;28;20550;-46
2023/01/20 01:39:53;;;;;;;13.50;11.63;;;7.30;1.00;;;;;;4996184;28;20026;-45
2023/01/20 01:42:23;;;;;;;14.27;12.73;;;7.20;1.00;;;;;;5013150;28;20044;-46
2023/01/20 01:45:10;;;;;;;14.90;12.83;;;7.20;1.00;;;;;;5013154;28;20030;-47
2023/01/20 01:47:46;;;;;;;13.93;12.07;;;7.20;1.00;;;;;;4979563;28;20465;-48
2023/01/20 01:50:16;;;;;;;14.33;12.03;;;7.00;1.00;;;;;;5008770;28;20026;-45
2023/01/20 01:52:45;;;;;;;13.53;11.53;;;7.10;1.00;;;;;;5013301;28;20045;-46
2023/01/20 01:55:14;;;;;;;13.97;11.43;;;7.00;1.00;;;;;;5013096;28;20022;-48
2023/01/20 01:57:40;;;;;;;14.57;11.57;;;7.20;1.00;;;;;;4995291;28;20045;-47
2023/01/20 02:00:06;;;;;;;14.13;12.37;;;7.20;1.00;;;;;;5013559;28;20069;-52
2023/01/20 02:02:32;;;;;;;14.33;11.33;;;7.10;1.00;;;;;;5013361;28;20025;-52
2023/01/20 02:04:57;;;;;;;13.13;11.63;;;7.20;1.00;;;;;;5013796;28;20029;-49
2023/01/20 02:07:23;;;;;;;14.20;11.73;;;7.10;1.00;;;;;;5011629;28;20534;-48
2023/01/20 02:09:49;;;;;;;14.37;11.80;;;7.20;1.00;;;;;;5011841;28;20101;-51
2023/01/20 02:12:18;;;;;;;13.40;11.33;;;7.20;1.00;;;;;;5011142;28;20120;-50
2023/01/20 02:14:52;;;;;;;11.90;9.73;;;7.10;1.00;;;;;;5010827;28;20082;-46
2023/01/20 02:17:35;;;;;;;11.98;10.75;;;7.10;1.00;;;;;;5010617;28;20124;-47
2023/01/20 02:20:12;;;;;;;12.53;10.80;;;7.10;1.00;;;;;;5012447;28;20111;-49
2023/01/20 02:23:23;;;;;;;12.70;10.37;;;7.10;1.00;;;;;;5000082;28;20475;-47
2023/01/20 02:25:57;;;;;;;11.67;10.40;;;7.00;1.00;;;;;;4989636;28;20088;-46
2023/01/20 02:28:47;;;;;;;11.98;10.45;;;6.90;1.00;;;;;;4994590;28;20061;-48
2023/01/20 02:31:28;;;;;;;15.30;11.40;;;7.10;1.00;;;;;;5010443;28;20036;-46
2023/01/20 02:33:59;;;;;;;14.10;11.70;;;7.10;1.00;;;;;;4991583;28;20026;-46
2023/01/20 02:36:36;;;;;;;14.20;11.33;;;7.00;1.00;;;;;;5010714;28;20033;-49
2023/01/20 02:39:04;;;;;;;12.70;11.17;;;6.90;1.00;;;;;;5012246;28;20040;-49
2023/01/20 02:41:57;;;;;;;13.27;10.73;;;7.00;1.00;;;;;;5010539;28;20033;-48
2023/01/20 02:44:55;;;;;;;14.13;11.43;;;6.90;1.00;;;;;;5012087;28;20026;-46
2023/01/20 02:47:56;;;;;;;12.77;10.33;;;6.80;1.00;;;;;;5001035;28;20046;-47
2023/01/20 02:50:31;;;;;;;12.27;10.40;;;6.90;1.00;;;;;;5011208;28;20038;-50
2023/01/20 02:53:00;;;;;;;13.17;11.30;;;7.00;1.00;;;;;;5011775;28;20046;-47
2023/01/20 02:55:34;;;;;;;13.40;11.10;;;7.10;1.00;;;;;;5011743;28;20120;-46
2023/01/20 02:58:04;;;;;;;11.40;10.20;;;7.10;1.00;;;;;;5011894;28;20041;-46
2023/01/20 03:00:36;;;;;;;14.37;10.00;;;7.10;1.00;;;;;;5010115;28;20057;-46
2023/01/20 03:03:08;;;;;;;11.93;9.67;;;7.20;1.00;;;;;;5001664;28;20399;-47
2023/01/20 03:05:38;;;;;;;12.60;10.87;;;7.00;1.00;;;;;;5011381;28;20033;-48
2023/01/20 03:08:08;;;;;;;12.73;10.40;;;7.10;1.00;;;;;;5011513;28;20026;-46
2023/01/20 03:10:36;;;;;;;12.70;11.00;;;7.10;1.00;;;;;;5011056;28;20030;-46
2023/01/20 03:13:05;;;;;;;11.77;10.50;;;7.10;1.00;;;;;;5011127;28;20036;-46
2023/01/20 03:15:56;;;;;;;11.77;10.47;;;7.10;1.00;;;;;;5010799;28;20178;-46
2023/01/20 03:18:23;;;;;;;12.70;10.43;;;7.20;1.00;;;;;;5010971;28;20033;-46
2023/01/20 03:20:48;;;;;;;11.10;9.73;;;7.20;1.00;;;;;;5009651;28;20096;-46
2023/01/20 03:23:14;;;;;;;10.37;9.00;;;7.00;1.00;;;;;;5011454;28;20467;-48
2023/01/20 03:25:41;;;;;;;14.20;10.60;;;7.00;1.00;;;;;;5011617;28;20361;-49
2023/01/20 03:28:07;;;;;;;12.80;10.07;;;7.10;1.00;;;;;;5012049;28;20033;-46
2023/01/20 03:30:33;;;;;;;13.47;10.37;;;7.00;1.00;;;;;;5010782;28;20030;-47
2023/01/20 03:32:59;;;;;;;12.33;10.70;;;7.10;1.00;;;;;;5012300;28;20025;-47
2023/01/20 03:35:25;;;;;;;15.60;10.97;;;7.10;1.00;;;;;;5011409;28;20030;-46
2023/01/20 03:37:50;;;;;;;12.27;10.37;;;7.00;1.00;;;;;;5011730;28;20029;-46
2023/01/20 03:40:16;;;;;;;14.47;10.33;;;6.90;1.00;;;;;;5010833;28;20032;-46
2023/01/20 03:43:00;;;;;;;11.07;9.80;;;6.90;1.00;;;;;;5010376;28;20042;-46
2023/01/20 03:45:54;;;;;;;11.53;9.87;;;7.00;1.00;;;;;;5008007;28;20022;-46
2023/01/20 03:48:34;;;;;;;12.07;9.53;;;6.80;1.00;;;;;;5011519;28;20042;-46
2023/01/20 03:51:07;;;;;;;11.40;9.50;;;6.80;1.00;;;;;;5006475;28;20030;-46
2023/01/20 03:53:44;;;;;;;11.70;10.30;;;6.80;1.00;;;;;;5010587;28;20053;-46
2023/01/20 03:56:15;;;;;;;13.70;9.40;;;6.90;1.00;;;;;;5011298;28;20448;-51
2023/01/20 03:58:44;;;;;;;11.53;9.40;;;6.80;1.00;;;;;;5010711;28;20101;-53
2023/01/20 04:01:12;;;;;;;10.73;9.47;;;6.80;1.00;;;;;;4993867;28;20025;-48
2023/01/20 04:03:41;;;;;;;11.77;9.67;;;6.80;1.00;;;;;;5011508;28;20495;-49
2023/01/20 04:06:10;;;;;;;11.47;9.33;;;6.90;1.00;;;;;;5011524;28;20064;-47
2023/01/20 04:08:43;;;;;;;10.63;9.07;;;6.90;1.00;;;;;;5015195;28;20427;-51
2023/01/20 04:11:09;;;;;;;11.67;9.90;;;6.90;1.00;;;;;;4997607;28;20120;-50
2023/01/20 04:13:35;;;;;;;9.67;8.20;;;6.90;1.00;;;;;;5015083;28;20121;-51
2023/01/20 04:16:02;;;;;;;11.60;9.60;;;6.80;1.00;;;;;;5015363;28;20080;-48
2023/01/20 04:18:28;;;;;;;13.33;10.43;;;6.90;1.00;;;;;;5014736;28;20108;-51
2023/01/20 04:21:00;;;;;;;11.80;9.57;;;6.90;1.00;;;;;;5012506;28;20125;-50
2023/01/20 04:23:49;;;;;;;11.30;9.70;;;6.90;1.00;;;;;;5015232;28;20053;-46
2023/01/20 04:26:14;;;;;;;11.60;9.27;;;6.90;1.00;;;;;;5014995;28;20052;-47
2023/01/20 04:28:40;;;;;;;15.30;10.13;;;6.80;1.00;;;;;;5014057;28;20034;-50
2023/01/20 04:31:06;;;;;;;11.53;9.23;;;6.90;1.00;;;;;;5014840;28;20384;-45
2023/01/20 04:33:31;;;;;;;12.10;9.73;;;6.80;1.00;;;;;;5015105;28;20510;-45
2023/01/20 04:35:57;;;;;;;11.63;10.40;;;6.80;1.00;;;;;;5014794;28;20108;-46
2023/01/20 04:38:22;;;;;;;14.17;10.87;;;6.80;1.00;;;;;;5014498;28;20033;-46
2023/01/20 04:40:48;;;;;;;12.03;10.40;;;6.80;1.00;;;;;;5014346;28;20076;-47
2023/01/20 04:43:14;;;;;;;12.23;10.33;;;6.70;1.00;;;;;;5011385;28;20022;-48
2023/01/20 04:45:40;;;;;;;12.67;10.43;;;6.70;1.00;;;;;;5009530;28;20108;-49
2023/01/20 04:48:07;;;;;;;12.63;10.70;;;6.60;1.00;;;;;;5013857;28;20025;-45
2023/01/20 04:50:36;;;;;;;14.53;11.30;;;6.70;1.00;;;;;;5013873;28;20396;-48
2023/01/20 04:53:01;;;;;;;13.00;10.60;;;6.60;1.00;;;;;;4982793;28;20047;-48
2023/01/20 04:55:27;;;;;;;15.40;11.57;;;6.60;1.00;;;;;;4974379;28;20037;-47
2023/01/20 04:57:53;;;;;;;14.70;11.27;;;6.60;1.00;;;;;;4975648;28;20093;-49
2023/01/20 05:00:19;;;;;;;17.87;12.40;;;6.60;1.00;;;;;;4974924;28;20126;-47
2023/01/20 05:02:46;;;;;;;15.70;11.97;;;6.60;1.00;;;;;;4979646;28;20452;-47
2023/01/20 05:05:12;;;;;;;17.73;12.23;;;6.50;1.00;;;;;;4979859;28;20089;-45
2023/01/20 05:07:37;;;;;;;16.83;12.77;;;6.60;1.00;;;;;;4975388;28;20035;-46
2023/01/20 05:10:04;;;;;;;17.07;13.23;;;6.60;1.00;;;;;;4975172;28;20058;-45
2023/01/20 05:12:29;;;;;;;15.90;13.10;;;6.60;1.00;;;;;;4975291;28;20493;-46
2023/01/20 05:14:55;;;;;;;15.10;13.07;;;6.50;1.00;;;;;;4974474;28;20015;-46
2023/01/20 05:17:21;;;;;;;17.37;14.37;;;6.50;1.00;;;;;;4974659;28;20070;-46
2023/01/20 05:19:46;;;;;;;17.17;12.97;;;6.40;1.00;;;;;;4974111;28;20023;-45
2023/01/20 05:22:12;;;;;;;16.97;14.03;;;6.40;1.00;;;;;;4974673;28;20038;-46
2023/01/20 05:24:37;;;;;;;17.07;13.50;;;6.50;1.00;;;;;;4974822;28;20461;-46
2023/01/20 05:27:03;;;;;;;16.27;12.80;;;6.50;1.00;;;;;;4974578;28;20173;-45
2023/01/20 05:29:29;;;;;;;15.67;13.00;;;6.60;1.00;;;;;;4974986;28;20046;-46
2023/01/20 05:31:54;;;;;;;17.23;13.80;;;6.60;1.00;;;;;;4974359;28;20035;-46
2023/01/20 05:34:20;;;;;;;16.50;13.73;;;6.50;1.00;;;;;;4974997;28;20027;-49
2023/01/20 05:36:50;;;;;;;16.13;12.87;;;6.50;1.00;;;;;;4973742;28;20038;-47
2023/01/20 05:39:15;;;;;;;19.77;15.27;;;6.50;1.00;;;;;;4974264;28;20437;-46
2023/01/20 05:41:41;;;;;;;15.03;12.30;;;6.60;1.00;;;;;;4974467;28;20046;-46
2023/01/20 05:44:07;;;;;;;16.67;13.50;;;6.50;1.00;;;;;;4961179;28;20054;-46
2023/01/20 05:46:33;;;;;;;17.27;13.17;;;6.40;1.00;;;;;;4974513;28;20035;-46
2023/01/20 05:48:59;;;;;;;17.30;13.73;;;6.50;1.00;;;;;;4974195;28;20026;-47
2023/01/20 05:51:24;;;;;;;18.30;13.97;;;6.40;1.00;;;;;;4974257;28;20058;-52
2023/01/20 05:53:50;;;;;;;18.20;14.37;;;6.50;1.00;;;;;;5008082;28;20112;-52
2023/01/20 05:56:15;;;;;;;19.57;13.97;;;6.40;1.00;;;;;;5012844;28;20069;-49
2023/01/20 05:58:41;;;;;;;18.37;13.47;;;6.50;1.00;;;;;;4995047;28;20502;-52
2023/01/20 06:01:10;;;;;;;16.77;13.07;;;6.50;1.00;;;;;;5013083;28;20104;-48
2023/01/20 06:03:36;;;;;;;17.00;13.33;;;6.40;1.00;;;;;;5013673;28;20121;-49
2023/01/20 06:06:04;;;;;;;16.90;14.00;;;6.50;1.00;;;;;;5012762;28;20033;-49
2023/01/20 06:08:31;;;;;;;18.57;13.00;;;6.30;1.00;;;;;;5012871;28;20087;-49
2023/01/20 06:10:57;;;;;;;18.07;14.17;;;6.10;1.00;;;;;;4995304;28;20053;-51
2023/01/20 06:13:23;;;;;;;17.10;13.13;;;6.20;1.00;;;;;;5013781;28;20030;-50
2023/01/20 06:15:53;;;;;;;20.30;13.93;;;6.30;1.00;;;;;;5012821;28;20522;-46
2023/01/20 06:18:20;;;;;;;15.87;13.20;;;6.30;1.00;;;;;;5013350;28;20207;-46
2023/01/20 06:20:46;;;;;;;18.77;14.20;;;6.20;1.00;;;;;;5012732;28;20018;-45
2023/01/20 06:23:12;;;;;;;21.33;15.30;;;6.30;1.00;;;;;;4995266;28;20161;-46
2023/01/20 06:25:38;;;;;;;20.30;14.70;;;6.10;1.00;;;;;;4994507;28;20022;-46
2023/01/20 06:28:03;;;;;;;19.20;14.80;;;6.00;1.00;;;;;;5013008;28;20026;-47
2023/01/20 06:30:29;;;;;;;19.63;15.27;;;6.20;1.00;;;;;;5012143;28;20061;-46
2023/01/20 06:32:56;;;;;;;21.80;15.80;;;6.30;1.00;;;;;;5013236;28;20049;-47
2023/01/20 06:35:22;;;;;;;17.43;14.73;;;6.20;1.00;;;;;;5012050;28;20030;-49
2023/01/20 06:37:48;;;;;;;20.17;14.90;;;6.30;1.00;;;;;;5011983;28;20069;-48
2023/01/20 06:40:14;;;;;;;18.23;14.07;;;6.40;1.00;;;;;;5012403;28;20053;-48
2023/01/20 06:42:40;;;;;;;16.57;13.57;;;6.30;1.00;;;;;;5012509;28;20053;-46
2023/01/20 06:45:07;;;;;;;20.53;14.20;;;6.30;1.00;;;;;;5011980;28;20030;-47
2023/01/20 06:47:32;;;;;;;17.93;12.97;;;6.30;1.00;;;;;;4993418;28;20037;-47
2023/01/20 06:49:58;;;;;;;19.17;14.90;;;6.40;1.00;;;;;;5012775;28;20460;-46
2023/01/20 06:52:24;;;;;;;17.17;13.97;;;6.30;1.00;;;;;;5012085;28;20045;-49
2023/01/20 06:54:49;;;;;;;18.77;13.90;;;6.30;1.00;;;;;;5012283;28;20456;-46
2023/01/20 06:57:15;;;;;;;20.03;14.73;;;6.40;1.00;;;;;;5012065;28;20117;-48
2023/01/20 06:59:41;;;;;;;24.73;16.77;;;6.30;1.00;;;;;;5012448;28;20034;-46
2023/01/20 07:02:10;;;;;;;25.03;17.37;;;6.40;1.00;;;;;;5011894;28;20089;-46
2023/01/20 07:04:36;;;;;;;26.87;17.93;;;6.30;1.00;;;;;;5012410;28;20033;-46
2023/01/20 07:07:01;;;;;;;29.20;17.93;;;6.30;1.00;;;;;;5011088;28;20030;-46
2023/01/20 07:09:27;;;;;;;32.17;19.73;;;6.30;1.00;;;;;;5012226;28;20030;-48
2023/01/20 07:11:53;;;;;;;32.97;20.30;;;6.30;1.00;;;;;;5011736;28;20112;-48
2023/01/20 07:14:19;;;;;;;34.20;18.97;;;6.30;1.00;;;;;;5012165;28;20022;-46
2023/01/20 07:16:45;;;;;;;33.07;20.67;;;6.20;1.00;;;;;;5011266;28;20875;-46
2023/01/20 07:19:11;;;;;;;30.13;16.00;;;6.30;1.00;;;;;;4994297;28;20442;-49
2023/01/20 07:21:37;;;;;;;16.83;12.77;;;6.30;1.00;;;;;;5011417;28;20033;-47
2023/01/20 07:24:03;;;;;;;21.33;14.53;;;6.30;1.00;;;;;;5011923;28;20026;-47
2023/01/20 07:26:29;;;;;;;19.03;13.50;;;6.10;1.00;;;;;;5011325;28;20369;-46
2023/01/20 07:28:56;;;;;;;17.10;12.37;;;6.20;1.00;;;;;;5009960;28;20120;-47
2023/01/20 07:31:24;;;;;;;18.27;12.83;;;6.20;1.00;;;;;;5011632;28;20108;-46
2023/01/20 07:33:50;;;;;;;17.77;13.77;;;6.20;1.00;;;;;;5010637;28;20080;-46
2023/01/20 07:36:17;;;;;;;16.17;12.70;;;6.20;1.00;;;;;;5011507;28;20407;-46
2023/01/20 07:38:46;;;;;;;16.60;12.33;;;6.20;1.00;;;;;;5012062;28;20022;-46
2023/01/20 07:41:14;;;;;;;18.60;11.93;;;6.10;1.00;;;;;;5010513;28;20095;-50
2023/01/20 07:43:44;;;;;;;18.23;13.20;;;6.10;1.00;;;;;;5011897;28;20095;-48
2023/01/20 07:46:10;;;;;;;17.27;12.27;;;6.00;1.00;;;;;;5011222;28;20053;-45
2023/01/20 07:48:36;;;;;;;22.67;13.50;;;6.00;1.00;;;;;;5008269;28;20026;-51
2023/01/20 07:51:04;;;;;;;20.63;12.60;;;6.10;1.00;;;;;;5011569;28;20052;-49
2023/01/20 07:53:34;;;;;;;17.33;12.67;;;6.20;1.00;;;;;;5010864;28;20053;-48
2023/01/20 07:56:04;;;;;;;17.37;11.93;;;6.20;1.00;;;;;;5010826;28;20430;-49
2023/01/20 07:58:30;;;;;;;15.20;12.00;;;6.10;1.00;;;;;;5011771;28;20084;-48
2023/01/20 08:00:56;;;;;;;17.83;12.73;;;6.10;1.00;;;;;;5011800;28;20045;-48
2023/01/20 08:03:24;;;;;;;17.00;12.60;;;6.20;1.00;;;;;;5010330;28;20119;-48
2023/01/20 08:05:50;;;;;;;20.00;11.70;;;6.10;1.00;;;;;;5011979;28;20026;-49
2023/01/20 08:08:15;;;;;;;18.40;11.97;;;6.20;1.00;;;;;;5011044;28;20160;-48
2023/01/20 08:10:41;;;;;;;17.97;13.13;;;6.20;1.00;;;;;;5011138;28;20120;-47
2023/01/20 08:13:06;;;;;;;18.67;12.33;;;6.20;1.00;;;;;;4993569;28;20030;-48
2023/01/20 08:15:32;;;;;;;16.03;12.37;;;6.30;1.00;;;;;;5011251;28;20022;-47
2023/01/20 08:17:58;;;;;;;20.63;13.33;;;6.30;1.00;;;;;;5010873;28;20440;-52
2023/01/20 08:20:24;;;;;;;19.00;12.60;;;6.30;1.00;;;;;;4993129;28;20033;-51
2023/01/20 08:22:49;;;;;;;19.37;12.83;;;6.40;1.00;;;;;;5010823;28;20361;-46
2023/01/20 08:25:15;;;;;;;18.07;12.50;;;6.40;1.00;;;;;;5010711;28;20527;-47
2023/01/20 08:27:41;;;;;;;19.10;13.97;;;6.30;1.00;;;;;;5006398;28;20140;-51
2023/01/20 08:30:07;;;;;;;20.70;13.37;;;6.30;1.00;;;;;;5003206;28;20034;-50
2023/01/20 08:32:33;;;;;;;19.33;13.50;;;6.30;1.00;;;;;;5004336;28;20070;-47
2023/01/20 08:34:58;;;;;;;17.27;13.23;;;6.40;1.00;;;;;;4993367;28;20033;-50
2023/01/20 08:37:24;;;;;;;19.57;13.77;;;6.40;1.00;;;;;;5009214;28;20460;-48
2023/01/20 08:39:50;;;;;;;22.77;15.13;;;6.50;1.00;;;;;;5010641;28;20080;-47
2023/01/20 08:42:16;;;;;;;20.03;15.60;;;6.50;1.00;;;;;;5011407;28;20418;-47
2023/01/20 08:44:42;;;;;;;24.87;17.60;;;6.40;1.00;;;;;;5010859;28;20590;-47
2023/01/20 08:47:07;;;;;;;22.60;16.80;;;6.50;1.00;;;;;;5010662;28;20056;-50
2023/01/20 08:49:33;;;;;;;26.17;18.67;;;6.40;1.00;;;;;;5010488;28;20026;-47
2023/01/20 08:51:59;;;;;;;23.03;17.77;;;6.50;1.00;;;;;;5010645;28;20030;-47
2023/01/20 08:54:24;;;;;;;28.93;19.30;;;6.50;1.00;;;;;;5014531;28;20133;-47
2023/01/20 08:56:53;;;;;;;23.37;18.33;;;6.50;1.00;;;;;;5013787;28;20037;-47
2023/01/20 08:59:19;;;;;;;22.60;17.77;;;6.50;1.00;;;;;;5014295;28;20034;-47
2023/01/20 09:01:45;;;;;;;21.20;16.37;;;6.60;1.00;;;;;;5014167;28;20034;-47
2023/01/20 09:04:41;;;;;;;27.73;18.27;;;6.60;1.00;;;;;;5014488;28;20116;-47
2023/01/20 09:07:11;;;;;;;27.80;17.80;;;6.60;1.00;;;;;;5013248;28;20457;-47
2023/01/20 09:09:37;;;;;;;23.87;19.17;;;6.60;1.00;;;;;;5011743;28;20022;-47
2023/01/20 09:12:04;;;;;;;21.27;17.37;;;6.60;1.00;;;;;;5011075;28;20038;-47
2023/01/20 09:14:29;;;;;;;22.87;17.43;;;6.50;1.00;;;;;;5014582;28;20125;-47
2023/01/20 09:16:55;;;;;;;26.10;18.80;;;6.60;1.00;;;;;;5013299;28;20125;-49
2023/01/20 09:19:21;;;;;;;25.47;19.60;;;6.30;1.00;;;;;;5012632;28;20432;-48
2023/01/20 09:21:46;;;;;;;24.87;19.57;;;6.20;1.00;;;;;;5006794;28;20034;-48
2023/01/20 09:24:12;;;;;;;28.57;21.00;;;6.30;1.00;;;;;;5013074;28;20384;-47
2023/01/20 09:26:38;;;;;;;27.93;21.77;;;6.30;1.00;;;;;;5005338;28;20403;-49
2023/01/20 09:29:09;;;;;;;30.50;23.03;;;6.40;1.00;;;;;;5007020;28;20386;-49
2023/01/20 09:31:42;;;;;;;31.90;21.57;;;6.40;1.00;;;;;;5012071;28;20061;-53
2023/01/20 09:34:08;;;;;;;33.90;25.70;;;6.60;1.00;;;;;;5012056;28;20087;-50
2023/01/20 09:36:34;;;;;;;34.70;24.57;;;6.50;1.00;;;;;;5012165;28;20100;-52
2023/01/20 09:44:52;;;;;;;30.07;23.17;;;6.50;1.00;;;;;;5013752;28;20092;-49
2023/01/20 09:47:21;;;;;;;29.20;21.10;;;6.90;1.00;;;;;;4995359;28;20465;-48
2023/01/20 09:55:34;;;;;;;34.00;23.25;;;6.90;1.00;;;;;;5010516;28;20553;-52
2023/01/20 09:58:33;;;;;;;33.07;22.60;;;6.90;1.00;;;;;;5013468;28;20054;-48
2023/01/20 10:01:06;;;;;;;29.00;23.17;;;6.70;1.00;;;;;;5013310;28;20041;-49
2023/01/20 10:03:42;;;;;;;37.67;26.17;;;6.70;1.00;;;;;;4995784;28;20030;-50
2023/01/20 10:06:23;;;;;;;29.77;22.13;;;7.00;1.00;;;;;;5011788;28;20049;-47
2023/01/20 10:09:01;;;;;;;32.23;23.50;;;7.10;1.00;;;;;;5012912;28;20030;-48
2023/01/20 10:11:30;;;;;;;32.33;23.17;;;7.00;1.00;;;;;;5000534;28;20029;-48
2023/01/20 10:14:08;;;;;;;28.87;21.23;;;7.10;1.00;;;;;;5003932;28;20026;-52
2023/01/20 10:16:47;;;;;;;28.43;21.03;;;6.90;1.00;;;;;;5009280;28;20516;-48
2023/01/20 10:19:25;;;;;;;25.17;18.97;;;6.90;1.00;;;;;;5011801;28;20041;-47
2023/01/20 10:22:19;;;;;;;24.00;17.57;;;6.90;1.00;;;;;;5012686;28;20050;-50
2023/01/20 10:24:47;;;;;;;24.43;17.60;;;6.80;1.00;;;;;;4998897;28;20030;-47
2023/01/20 10:27:13;;;;;;;32.40;23.17;;;6.90;1.00;;;;;;5005595;28;20112;-49
2023/01/20 10:29:46;;;;;;;36.60;23.00;;;7.00;1.00;;;;;;4995169;28;20496;-48
2023/01/20 10:32:32;;;;;;;30.37;21.10;;;7.10;1.00;;;;;;5003168;28;20025;-48
2023/01/20 10:35:18;;;;;;;24.93;20.63;;;7.10;1.00;;;;;;5011482;28;20034;-49
2023/01/20 10:37:44;;;;;;;32.20;23.30;;;7.00;1.00;;;;;;5012511;28;20256;-47
2023/01/20 10:40:39;;;;;;;33.77;23.20;;;7.10;1.00;;;;;;5011665;28;20112;-47
2023/01/20 10:43:15;;;;;;;;;;;7.10;1.00;;;;;;5008544;28;20415;-48
2023/01/20 10:46:08;;;;;;;29.42;23.48;;;6.90;1.00;;;;;;5013003;28;19905;-48
2023/01/20 11:06:25;;;;;;;35.27;26.53;;;7.50;1.00;;;;;;5081199;27;20519;-50
2023/01/20 11:08:52;;;;;;;36.03;26.67;;;8.00;1.00;;;;;;5067142;28;20029;-53
2023/01/20 11:11:22;;;;;;;30.57;26.07;;;7.80;1.00;;;;;;5069155;28;20086;-51
2023/01/20 11:13:52;;;;;;;30.87;25.50;;;8.10;1.00;;;;;;5068650;28;20029;-51
2023/01/20 11:16:24;;;;;;;34.93;24.80;;;8.00;1.00;;;;;;5068819;28;20486;-55
2023/01/20 11:19:04;;;;;;;33.40;24.77;;;7.90;1.00;;;;;;5064643;28;20036;-60
2023/01/20 11:21:34;;;;;;;33.17;27.07;;;7.50;1.00;;;;;;5067071;28;20036;-60
2023/01/20 11:24:00;;;;;;;37.47;27.93;;;7.30;1.00;;;;;;5051635;28;20025;-60
2023/01/20 11:26:32;;;;;;;35.97;27.00;;;7.10;1.00;;;;;;5061722;28;20079;-56
2023/01/20 11:28:59;;;;;;;39.97;28.33;;;7.40;1.00;;;;;;5058397;28;20135;-52
2023/01/20 11:31:45;;;;;;;35.40;28.33;;;7.50;1.00;;;;;;5061418;28;20039;-50
2023/01/20 11:34:16;;;;;;;35.50;27.67;;;7.70;1.00;;;;;;5064565;28;20036;-54
2023/01/20 11:36:42;;;;;;;32.63;25.00;;;7.60;1.00;;;;;;5070586;28;20021;-53
2023/01/20 11:39:29;;;;;;;31.37;25.27;;;7.70;1.00;;;;;;5070131;28;20131;-53
2023/01/20 11:42:15;;;;;;;27.97;22.93;;;7.80;1.00;;;;;;5067416;28;20496;-54
2023/01/20 11:44:50;;;;;;;27.33;21.80;;;7.70;1.00;;;;;;5053794;28;20040;-56
2023/01/20 11:47:33;;;;;;;32.43;24.87;;;7.60;1.00;;;;;;5065691;28;20028;-55
2023/01/20 11:50:24;;;;;;;28.30;24.33;;;7.60;1.00;;;;;;5067174;28;20025;-56
2023/01/20 11:52:49;;;;;;;36.60;25.93;;;7.70;1.00;;;;;;5065848;28;20032;-53
2023/01/20 11:55:22;;;;;;;32.17;25.90;;;7.80;1.00;;;;;;5072479;28;20024;-54
2023/01/20 11:57:57;;;;;;;32.10;25.97;;;7.90;1.00;;;;;;5056394;28;20051;-53
2023/01/20 12:00:34;;;;;;;32.40;25.27;;;7.80;1.00;;;;;;5066027;28;20107;-54
2023/01/20 12:03:11;;;;;;;29.83;24.53;;;7.70;1.00;;;;;;5059827;28;20044;-54
2023/01/20 12:06:01;;;;;;;27.27;22.03;;;7.60;1.00;;;;;;5072517;28;20144;-52
2023/01/20 12:08:29;;;;;;;32.17;22.77;;;7.60;1.00;;;;;;5072787;28;20028;-55
2023/01/20 12:11:01;;;;;;;33.07;24.20;;;7.80;1.00;;;;;;5068654;28;20036;-52
2023/01/20 12:16:32;;;;;;;25.80;19.83;;;7.70;1.00;;;;;;5065358;28;20150;-55
2023/01/20 12:19:03;;;;;;;28.30;20.57;;;7.60;1.00;;;;;;5069648;28;20025;-54
2023/01/20 12:21:35;;;;;;;25.30;19.50;;;7.70;1.00;;;;;;5070687;28;20033;-52
2023/01/20 12:24:27;;;;;;;25.17;20.57;;;7.80;1.00;;;;;;5070967;28;20036;-54
2023/01/20 12:26:53;;;;;;;21.23;16.63;;;7.70;1.00;;;;;;5072689;28;20396;-52
2023/01/20 12:29:23;;;;;;;23.73;19.90;;;7.80;1.00;;;;;;5069896;28;20028;-51
2023/01/20 12:31:49;;;;;;;25.17;18.80;;;7.70;1.00;;;;;;5067518;28;20024;-55
2023/01/20 12:34:23;;;;;;;30.87;21.63;;;7.80;1.00;;;;;;5071807;28;20025;-51
2023/01/20 12:37:15;;;;;;;21.73;16.95;;;7.80;1.00;;;;;;5070864;28;20021;-52
2023/01/20 12:39:47;;;;;;;24.13;17.97;;;7.80;1.00;;;;;;5062252;28;20032;-51
2023/01/20 12:42:48;;;;;;;23.83;18.53;;;7.80;1.00;;;;;;5072136;28;20021;-53
2023/01/20 12:45:47;;;;;;;23.17;19.00;;;7.80;1.00;;;;;;5067894;28;20054;-51
2023/01/20 12:48:48;;;;;;;32.83;23.70;;;7.80;1.00;;;;;;5064246;28;20388;-56
2023/01/20 12:51:37;;;;;;;27.40;20.20;;;7.80;1.00;;;;;;5073414;28;20028;-55
2023/01/20 12:54:12;;;;;;;25.23;19.60;;;7.80;1.00;;;;;;5074183;28;20377;-52
2023/01/20 12:57:16;;;;;;;21.70;18.63;;;7.80;1.00;;;;;;5071145;28;20036;-56
2023/01/20 12:59:59;;;;;;;23.23;18.63;;;7.80;1.00;;;;;;5009767;28;20412;-56
2023/01/20 13:02:46;;;;;;;23.00;18.43;;;7.70;1.00;;;;;;5066379;28;20535;-53
2023/01/20 13:05:37;;;;;;;23.60;18.23;;;7.70;1.00;;;;;;5072505;28;20379;-55
2023/01/20 13:08:10;;;;;;;24.07;18.97;;;7.80;1.00;;;;;;5073144;28;20028;-52
2023/01/20 13:11:20;;;;;;;22.33;18.57;;;7.80;1.00;;;;;;5070340;28;20414;-52
2023/01/20 13:13:57;;;;;;;23.83;19.03;;;7.80;1.00;;;;;;5034998;28;20038;-53
2023/01/20 13:17:14;;;;;;;26.20;19.63;;;7.80;1.00;;;;;;5072077;28;20147;-52
2023/01/20 13:19:41;;;;;;;24.43;19.30;;;7.90;1.00;;;;;;5010412;28;20033;-54
2023/01/20 13:22:15;;;;;;;21.73;18.30;;;7.90;1.00;;;;;;5008363;28;20034;-58
2023/01/20 13:24:44;;;;;;;26.10;19.67;;;7.80;1.00;;;;;;5034122;28;20569;-54
2023/01/20 13:27:12;;;;;;;22.73;18.77;;;7.90;1.00;;;;;;5060936;28;20055;-55
2023/01/20 13:29:50;;;;;;;24.00;18.70;;;8.00;1.00;;;;;;5066077;28;20036;-54
2023/01/20 13:32:29;;;;;;;25.67;19.00;;;8.00;1.00;;;;;;5070028;28;20028;-57
2023/01/20 13:34:55;;;;;;;27.83;20.53;;;8.00;1.00;;;;;;5067745;28;20029;-57
2023/01/20 13:37:30;;;;;;;25.37;18.83;;;8.00;1.00;;;;;;5070797;28;20085;-56
2023/01/20 13:39:59;;;;;;;25.45;19.23;;;8.00;1.00;;;;;;5070635;28;20040;-57